Terminal Aerodrome Forecast
Issued by NWS

Home | Current Version | Previous Version | Text Only | Print | Product List | Glossary On
Versions: 1 2 3 4 5 6 7 8 9 10 11 12 13 14 15 16 17 18 19 20 21 22 23 24 25 26
940
FTAK31 PAJN 212101 CCB
TAFAYA
TAF COR
PAYA 212101Z 2118/2218 12006KT 2SM RA BR BKN006 OVC013
     FM212300 09005KT 2SM -RA BR BKN006 OVC012
     FM221200 10008KT 5SM BR BKN004 OVC010
      AMD LTD TO CLD VIS AND WIND=

USA.gov is the U.S. government's official web portal to all federal, state and local government web resources and services.